sensor_id;sensor_type;location;lat;lon;timestamp;P1;durP1;ratioP1;P2;durP2;ratioP2
13252;SDS011;6693;54.370;10.132;2022-10-16T00:00:50;16.38;;;7.65;;
13252;SDS011;6693;54.370;10.132;2022-10-16T00:01:53;17.83;;;8.25;;
13252;SDS011;6693;54.370;10.132;2022-10-16T00:02:53;17.08;;;8.23;;
13252;SDS011;6693;54.370;10.132;2022-10-16T00:03:57;16.60;;;6.65;;
13252;SDS011;6693;54.370;10.132;2022-10-16T00:06:01;17.23;;;6.90;;
13252;SDS011;6693;54.370;10.132;2022-10-16T00:07:02;16.00;;;7.25;;
13252;SDS011;6693;54.370;10.132;2022-10-16T00:08:05;16.05;;;7.65;;
13252;SDS011;6693;54.370;10.132;2022-10-16T00:09:07;16.52;;;7.28;;
13252;SDS011;6693;54.370;10.132;2022-10-16T00:10:10;16.58;;;7.57;;
13252;SDS011;6693;54.370;10.132;2022-10-16T00:11:14;14.85;;;6.38;;
13252;SDS011;6693;54.370;10.132;2022-10-16T00:13:19;16.13;;;6.88;;
13252;SDS011;6693;54.370;10.132;2022-10-16T00:14:22;17.70;;;7.32;;
13252;SDS011;6693;54.370;10.132;2022-10-16T00:15:22;15.88;;;6.57;;
13252;SDS011;6693;54.370;10.132;2022-10-16T00:16:26;13.68;;;6.78;;
13252;SDS011;6693;54.370;10.132;2022-10-16T00:17:27;15.02;;;6.90;;
13252;SDS011;6693;54.370;10.132;2022-10-16T00:18:30;13.05;;;5.45;;
13252;SDS011;6693;54.370;10.132;2022-10-16T00:19:31;15.45;;;7.13;;
13252;SDS011;6693;54.370;10.132;2022-10-16T00:20:34;14.75;;;6.85;;
13252;SDS011;6693;54.370;10.132;2022-10-16T00:21:36;13.45;;;6.93;;
13252;SDS011;6693;54.370;10.132;2022-10-16T00:22:40;14.50;;;6.85;;
13252;SDS011;6693;54.370;10.132;2022-10-16T00:23:40;13.68;;;6.40;;
13252;SDS011;6693;54.370;10.132;2022-10-16T00:24:44;13.57;;;6.18;;
13252;SDS011;6693;54.370;10.132;2022-10-16T00:25:45;20.63;;;14.25;;
13252;SDS011;6693;54.370;10.132;2022-10-16T00:26:51;19.58;;;12.45;;
13252;SDS011;6693;54.370;10.132;2022-10-16T00:27:54;16.48;;;7.05;;
13252;SDS011;6693;54.370;10.132;2022-10-16T00:28:55;16.42;;;6.80;;
13252;SDS011;6693;54.370;10.132;2022-10-16T00:29:58;14.85;;;5.78;;
13252;SDS011;6693;54.370;10.132;2022-10-16T00:30:59;14.10;;;7.38;;
13252;SDS011;6693;54.370;10.132;2022-10-16T00:33:07;15.25;;;5.85;;
13252;SDS011;6693;54.370;10.132;2022-10-16T00:34:10;14.27;;;6.40;;
13252;SDS011;6693;54.370;10.132;2022-10-16T00:35:10;13.02;;;6.53;;
13252;SDS011;6693;54.370;10.132;2022-10-16T00:36:14;15.82;;;6.68;;
13252;SDS011;6693;54.370;10.132;2022-10-16T00:37:16;14.10;;;6.32;;
13252;SDS011;6693;54.370;10.132;2022-10-16T00:38:19;13.45;;;6.72;;
13252;SDS011;6693;54.370;10.132;2022-10-16T00:39:20;15.55;;;7.10;;
13252;SDS011;6693;54.370;10.132;2022-10-16T00:40:23;12.80;;;6.07;;
13252;SDS011;6693;54.370;10.132;2022-10-16T00:41:24;14.15;;;6.90;;
13252;SDS011;6693;54.370;10.132;2022-10-16T00:42:30;13.98;;;6.65;;
13252;SDS011;6693;54.370;10.132;2022-10-16T00:43:32;13.77;;;5.18;;
13252;SDS011;6693;54.370;10.132;2022-10-16T00:44:42;12.25;;;5.80;;
13252;SDS011;6693;54.370;10.132;2022-10-16T00:45:47;13.68;;;5.75;;
13252;SDS011;6693;54.370;10.132;2022-10-16T00:46:50;14.95;;;6.50;;
13252;SDS011;6693;54.370;10.132;2022-10-16T00:47:51;15.05;;;6.20;;
13252;SDS011;6693;54.370;10.132;2022-10-16T00:48:56;13.98;;;5.82;;
13252;SDS011;6693;54.370;10.132;2022-10-16T00:50:00;15.57;;;5.45;;
13252;SDS011;6693;54.370;10.132;2022-10-16T00:51:06;14.73;;;7.13;;
13252;SDS011;6693;54.370;10.132;2022-10-16T00:52:07;11.07;;;5.38;;
13252;SDS011;6693;54.370;10.132;2022-10-16T00:53:10;11.68;;;5.25;;
13252;SDS011;6693;54.370;10.132;2022-10-16T00:54:13;11.68;;;5.80;;
13252;SDS011;6693;54.370;10.132;2022-10-16T00:55:18;12.93;;;4.90;;
13252;SDS011;6693;54.370;10.132;2022-10-16T00:56:19;16.00;;;6.10;;
13252;SDS011;6693;54.370;10.132;2022-10-16T00:57:22;15.82;;;6.03;;
13252;SDS011;6693;54.370;10.132;2022-10-16T00:58:26;14.23;;;5.85;;
13252;SDS011;6693;54.370;10.132;2022-10-16T00:59:30;12.98;;;5.97;;
13252;SDS011;6693;54.370;10.132;2022-10-16T01:00:31;15.23;;;6.32;;
13252;SDS011;6693;54.370;10.132;2022-10-16T01:01:34;11.98;;;5.28;;
13252;SDS011;6693;54.370;10.132;2022-10-16T01:02:35;12.50;;;5.70;;
13252;SDS011;6693;54.370;10.132;2022-10-16T01:03:39;13.45;;;5.60;;
13252;SDS011;6693;54.370;10.132;2022-10-16T01:04:40;12.95;;;5.82;;
13252;SDS011;6693;54.370;10.132;2022-10-16T01:05:45;12.98;;;5.32;;
13252;SDS011;6693;54.370;10.132;2022-10-16T01:06:54;12.63;;;4.95;;
13252;SDS011;6693;54.370;10.132;2022-10-16T01:08:03;11.55;;;5.13;;
13252;SDS011;6693;54.370;10.132;2022-10-16T01:09:11;11.70;;;5.22;;
13252;SDS011;6693;54.370;10.132;2022-10-16T01:10:19;15.38;;;5.60;;
13252;SDS011;6693;54.370;10.132;2022-10-16T01:11:27;16.65;;;5.85;;
13252;SDS011;6693;54.370;10.132;2022-10-16T01:12:35;13.90;;;5.47;;
13252;SDS011;6693;54.370;10.132;2022-10-16T01:13:44;12.07;;;5.22;;
13252;SDS011;6693;54.370;10.132;2022-10-16T01:14:52;12.27;;;5.63;;
13252;SDS011;6693;54.370;10.132;2022-10-16T01:15:54;13.60;;;5.18;;
13252;SDS011;6693;54.370;10.132;2022-10-16T01:17:01;14.35;;;5.38;;
13252;SDS011;6693;54.370;10.132;2022-10-16T01:18:05;10.32;;;4.88;;
13252;SDS011;6693;54.370;10.132;2022-10-16T01:19:12;11.27;;;5.45;;
13252;SDS011;6693;54.370;10.132;2022-10-16T01:20:17;13.57;;;7.10;;
13252;SDS011;6693;54.370;10.132;2022-10-16T01:21:26;13.32;;;4.85;;
13252;SDS011;6693;54.370;10.132;2022-10-16T01:22:30;12.95;;;5.22;;
13252;SDS011;6693;54.370;10.132;2022-10-16T01:23:43;13.05;;;5.13;;
13252;SDS011;6693;54.370;10.132;2022-10-16T01:24:50;12.75;;;5.50;;
13252;SDS011;6693;54.370;10.132;2022-10-16T01:25:59;12.00;;;5.53;;
13252;SDS011;6693;54.370;10.132;2022-10-16T01:27:12;13.98;;;5.13;;
13252;SDS011;6693;54.370;10.132;2022-10-16T01:28:16;13.80;;;5.57;;
13252;SDS011;6693;54.370;10.132;2022-10-16T01:29:18;12.23;;;5.40;;
13252;SDS011;6693;54.370;10.132;2022-10-16T01:30:24;10.80;;;5.13;;
13252;SDS011;6693;54.370;10.132;2022-10-16T01:31:29;12.50;;;5.63;;
13252;SDS011;6693;54.370;10.132;2022-10-16T01:32:36;14.65;;;5.53;;
13252;SDS011;6693;54.370;10.132;2022-10-16T01:33:39;17.50;;;5.53;;
13252;SDS011;6693;54.370;10.132;2022-10-16T01:34:47;13.73;;;5.15;;
13252;SDS011;6693;54.370;10.132;2022-10-16T01:35:51;12.27;;;4.68;;
13252;SDS011;6693;54.370;10.132;2022-10-16T01:36:56;8.95;;;4.03;;
13252;SDS011;6693;54.370;10.132;2022-10-16T01:38:01;13.90;;;5.30;;
13252;SDS011;6693;54.370;10.132;2022-10-16T01:39:06;12.90;;;5.20;;
13252;SDS011;6693;54.370;10.132;2022-10-16T01:40:11;12.90;;;5.20;;
13252;SDS011;6693;54.370;10.132;2022-10-16T01:41:17;10.77;;;5.03;;
13252;SDS011;6693;54.370;10.132;2022-10-16T01:42:23;12.05;;;5.75;;
13252;SDS011;6693;54.370;10.132;2022-10-16T01:43:30;10.60;;;4.70;;
13252;SDS011;6693;54.370;10.132;2022-10-16T01:44:33;13.30;;;5.68;;
13252;SDS011;6693;54.370;10.132;2022-10-16T01:45:38;13.27;;;6.13;;
13252;SDS011;6693;54.370;10.132;2022-10-16T01:46:39;16.52;;;6.30;;
13252;SDS011;6693;54.370;10.132;2022-10-16T01:47:44;11.93;;;5.03;;
13252;SDS011;6693;54.370;10.132;2022-10-16T01:48:45;13.10;;;5.13;;
13252;SDS011;6693;54.370;10.132;2022-10-16T01:49:49;11.30;;;4.93;;
13252;SDS011;6693;54.370;10.132;2022-10-16T01:50:52;13.20;;;5.28;;
13252;SDS011;6693;54.370;10.132;2022-10-16T01:51:59;11.80;;;5.53;;
13252;SDS011;6693;54.370;10.132;2022-10-16T01:53:03;14.25;;;5.50;;
13252;SDS011;6693;54.370;10.132;2022-10-16T01:54:08;14.25;;;5.78;;
13252;SDS011;6693;54.370;10.132;2022-10-16T01:55:09;14.43;;;5.85;;
13252;SDS011;6693;54.370;10.132;2022-10-16T01:56:13;13.65;;;5.95;;
13252;SDS011;6693;54.370;10.132;2022-10-16T01:57:15;11.95;;;5.97;;
13252;SDS011;6693;54.370;10.132;2022-10-16T01:58:21;13.18;;;5.32;;
13252;SDS011;6693;54.370;10.132;2022-10-16T01:59:24;13.18;;;5.82;;
13252;SDS011;6693;54.370;10.132;2022-10-16T02:00:28;12.77;;;5.47;;
13252;SDS011;6693;54.370;10.132;2022-10-16T02:01:30;13.73;;;5.32;;
13252;SDS011;6693;54.370;10.132;2022-10-16T02:02:34;13.10;;;5.68;;
13252;SDS011;6693;54.370;10.132;2022-10-16T02:03:35;12.57;;;5.72;;
13252;SDS011;6693;54.370;10.132;2022-10-16T02:04:42;12.13;;;5.20;;
13252;SDS011;6693;54.370;10.132;2022-10-16T02:05:45;10.85;;;5.28;;
13252;SDS011;6693;54.370;10.132;2022-10-16T02:06:50;11.30;;;5.10;;
13252;SDS011;6693;54.370;10.132;2022-10-16T02:07:53;12.13;;;4.80;;
13252;SDS011;6693;54.370;10.132;2022-10-16T02:08:54;14.48;;;5.35;;
13252;SDS011;6693;54.370;10.132;2022-10-16T02:09:57;12.38;;;5.00;;
13252;SDS011;6693;54.370;10.132;2022-10-16T02:10:58;10.20;;;5.10;;
13252;SDS011;6693;54.370;10.132;2022-10-16T02:12:03;12.68;;;5.50;;
13252;SDS011;6693;54.370;10.132;2022-10-16T02:13:09;13.18;;;5.45;;
13252;SDS011;6693;54.370;10.132;2022-10-16T02:14:16;12.20;;;4.95;;
13252;SDS011;6693;54.370;10.132;2022-10-16T02:15:17;11.68;;;5.07;;
13252;SDS011;6693;54.370;10.132;2022-10-16T02:16:21;10.50;;;4.60;;
13252;SDS011;6693;54.370;10.132;2022-10-16T02:17:24;12.40;;;5.20;;
13252;SDS011;6693;54.370;10.132;2022-10-16T02:18:28;12.45;;;5.50;;
13252;SDS011;6693;54.370;10.132;2022-10-16T02:19:30;13.13;;;5.18;;
13252;SDS011;6693;54.370;10.132;2022-10-16T02:20:34;10.43;;;4.50;;
13252;SDS011;6693;54.370;10.132;2022-10-16T02:21:39;13.20;;;5.20;;
13252;SDS011;6693;54.370;10.132;2022-10-16T02:22:45;11.55;;;5.15;;
13252;SDS011;6693;54.370;10.132;2022-10-16T02:23:48;11.25;;;5.40;;
13252;SDS011;6693;54.370;10.132;2022-10-16T02:24:56;13.57;;;5.53;;
13252;SDS011;6693;54.370;10.132;2022-10-16T02:25:58;14.45;;;5.50;;
13252;SDS011;6693;54.370;10.132;2022-10-16T02:27:03;12.02;;;5.25;;
13252;SDS011;6693;54.370;10.132;2022-10-16T02:28:08;12.45;;;5.43;;
13252;SDS011;6693;54.370;10.132;2022-10-16T02:29:14;14.05;;;5.20;;
13252;SDS011;6693;54.370;10.132;2022-10-16T02:30:21;13.43;;;5.32;;
13252;SDS011;6693;54.370;10.132;2022-10-16T02:31:28;12.63;;;6.43;;
13252;SDS011;6693;54.370;10.132;2022-10-16T02:32:34;10.75;;;5.20;;
13252;SDS011;6693;54.370;10.132;2022-10-16T02:33:40;12.93;;;5.38;;
13252;SDS011;6693;54.370;10.132;2022-10-16T02:34:41;12.98;;;4.68;;
13252;SDS011;6693;54.370;10.132;2022-10-16T02:35:45;14.13;;;5.25;;
13252;SDS011;6693;54.370;10.132;2022-10-16T02:36:47;12.30;;;5.00;;
13252;SDS011;6693;54.370;10.132;2022-10-16T02:37:51;11.57;;;4.80;;
13252;SDS011;6693;54.370;10.132;2022-10-16T02:38:52;10.10;;;4.97;;
13252;SDS011;6693;54.370;10.132;2022-10-16T02:39:56;11.73;;;4.90;;
13252;SDS011;6693;54.370;10.132;2022-10-16T02:42:00;11.20;;;5.00;;
13252;SDS011;6693;54.370;10.132;2022-10-16T02:43:02;12.13;;;4.35;;
13252;SDS011;6693;54.370;10.132;2022-10-16T02:44:06;11.20;;;4.97;;
13252;SDS011;6693;54.370;10.132;2022-10-16T02:45:10;10.98;;;4.45;;
13252;SDS011;6693;54.370;10.132;2022-10-16T02:46:14;11.25;;;4.85;;
13252;SDS011;6693;54.370;10.132;2022-10-16T02:47:14;11.30;;;4.95;;
13252;SDS011;6693;54.370;10.132;2022-10-16T02:48:18;11.82;;;5.07;;
13252;SDS011;6693;54.370;10.132;2022-10-16T02:49:18;9.27;;;4.30;;
13252;SDS011;6693;54.370;10.132;2022-10-16T02:50:21;12.77;;;4.93;;
13252;SDS011;6693;54.370;10.132;2022-10-16T02:51:22;12.63;;;4.75;;
13252;SDS011;6693;54.370;10.132;2022-10-16T02:52:25;12.68;;;4.90;;
13252;SDS011;6693;54.370;10.132;2022-10-16T02:53:26;12.85;;;4.78;;
13252;SDS011;6693;54.370;10.132;2022-10-16T02:54:29;12.43;;;5.25;;
13252;SDS011;6693;54.370;10.132;2022-10-16T02:55:30;11.07;;;4.65;;
13252;SDS011;6693;54.370;10.132;2022-10-16T02:56:33;12.15;;;5.30;;
13252;SDS011;6693;54.370;10.132;2022-10-16T02:57:34;14.20;;;4.82;;
13252;SDS011;6693;54.370;10.132;2022-10-16T02:58:38;10.10;;;4.40;;
13252;SDS011;6693;54.370;10.132;2022-10-16T02:59:39;12.35;;;4.78;;
13252;SDS011;6693;54.370;10.132;2022-10-16T03:00:44;13.27;;;6.72;;
13252;SDS011;6693;54.370;10.132;2022-10-16T03:01:46;11.50;;;5.20;;
13252;SDS011;6693;54.370;10.132;2022-10-16T03:02:49;11.27;;;4.53;;
13252;SDS011;6693;54.370;10.132;2022-10-16T03:03:50;13.77;;;4.68;;
13252;SDS011;6693;54.370;10.132;2022-10-16T03:04:53;10.82;;;4.15;;
13252;SDS011;6693;54.370;10.132;2022-10-16T03:05:54;10.35;;;4.75;;
13252;SDS011;6693;54.370;10.132;2022-10-16T03:06:57;11.30;;;4.90;;
13252;SDS011;6693;54.370;10.132;2022-10-16T03:07:57;13.55;;;4.95;;
13252;SDS011;6693;54.370;10.132;2022-10-16T03:09:01;9.93;;;3.92;;
13252;SDS011;6693;54.370;10.132;2022-10-16T03:10:02;11.85;;;4.47;;
13252;SDS011;6693;54.370;10.132;2022-10-16T03:11:06;12.77;;;4.95;;
13252;SDS011;6693;54.370;10.132;2022-10-16T03:12:07;11.18;;;4.57;;
13252;SDS011;6693;54.370;10.132;2022-10-16T03:13:12;12.32;;;4.78;;
13252;SDS011;6693;54.370;10.132;2022-10-16T03:14:12;12.25;;;4.70;;
13252;SDS011;6693;54.370;10.132;2022-10-16T03:15:15;12.60;;;4.72;;
13252;SDS011;6693;54.370;10.132;2022-10-16T03:16:18;12.68;;;4.78;;
13252;SDS011;6693;54.370;10.132;2022-10-16T03:17:22;12.85;;;4.97;;
13252;SDS011;6693;54.370;10.132;2022-10-16T03:18:22;12.80;;;4.75;;
13252;SDS011;6693;54.370;10.132;2022-10-16T03:19:26;11.20;;;4.50;;
13252;SDS011;6693;54.370;10.132;2022-10-16T03:20:26;12.02;;;4.85;;
13252;SDS011;6693;54.370;10.132;2022-10-16T03:21:29;9.23;;;4.10;;
13252;SDS011;6693;54.370;10.132;2022-10-16T03:22:30;9.48;;;3.33;;
13252;SDS011;6693;54.370;10.132;2022-10-16T03:23:33;15.07;;;5.03;;
13252;SDS011;6693;54.370;10.132;2022-10-16T03:24:34;10.40;;;4.65;;
13252;SDS011;6693;54.370;10.132;2022-10-16T03:25:37;10.80;;;4.70;;
13252;SDS011;6693;54.370;10.132;2022-10-16T03:26:38;11.10;;;4.53;;
13252;SDS011;6693;54.370;10.132;2022-10-16T03:27:41;10.68;;;4.57;;
13252;SDS011;6693;54.370;10.132;2022-10-16T03:28:42;12.80;;;5.95;;
13252;SDS011;6693;54.370;10.132;2022-10-16T03:29:45;11.50;;;4.63;;
13252;SDS011;6693;54.370;10.132;2022-10-16T03:30:45;9.20;;;4.47;;
13252;SDS011;6693;54.370;10.132;2022-10-16T03:31:51;12.07;;;4.70;;
13252;SDS011;6693;54.370;10.132;2022-10-16T03:32:52;10.80;;;4.43;;
13252;SDS011;6693;54.370;10.132;2022-10-16T03:33:55;11.10;;;4.65;;
13252;SDS011;6693;54.370;10.132;2022-10-16T03:34:56;10.63;;;4.80;;
13252;SDS011;6693;54.370;10.132;2022-10-16T03:35:59;10.63;;;4.22;;
13252;SDS011;6693;54.370;10.132;2022-10-16T03:37:00;12.13;;;4.78;;
13252;SDS011;6693;54.370;10.132;2022-10-16T03:38:03;12.00;;;4.63;;
13252;SDS011;6693;54.370;10.132;2022-10-16T03:39:04;11.05;;;4.47;;
13252;SDS011;6693;54.370;10.132;2022-10-16T03:40:07;9.95;;;4.40;;
13252;SDS011;6693;54.370;10.132;2022-10-16T03:41:08;11.07;;;4.80;;
13252;SDS011;6693;54.370;10.132;2022-10-16T03:42:11;10.13;;;4.07;;
13252;SDS011;6693;54.370;10.132;2022-10-16T03:43:12;11.18;;;4.40;;
13252;SDS011;6693;54.370;10.132;2022-10-16T03:44:15;10.00;;;4.72;;
13252;SDS011;6693;54.370;10.132;2022-10-16T03:45:16;12.80;;;4.95;;
13252;SDS011;6693;54.370;10.132;2022-10-16T03:46:19;9.10;;;4.22;;
13252;SDS011;6693;54.370;10.132;2022-10-16T03:47:22;9.30;;;3.38;;
13252;SDS011;6693;54.370;10.132;2022-10-16T03:48:25;10.75;;;3.70;;
13252;SDS011;6693;54.370;10.132;2022-10-16T03:49:26;12.25;;;4.10;;
13252;SDS011;6693;54.370;10.132;2022-10-16T03:50:29;9.38;;;3.80;;
13252;SDS011;6693;54.370;10.132;2022-10-16T03:51:30;11.68;;;3.72;;
13252;SDS011;6693;54.370;10.132;2022-10-16T03:52:33;9.57;;;4.13;;
13252;SDS011;6693;54.370;10.132;2022-10-16T03:53:34;9.45;;;3.95;;
13252;SDS011;6693;54.370;10.132;2022-10-16T03:54:37;10.35;;;4.07;;
13252;SDS011;6693;54.370;10.132;2022-10-16T03:55:38;10.07;;;3.63;;
13252;SDS011;6693;54.370;10.132;2022-10-16T03:56:41;9.35;;;3.78;;
13252;SDS011;6693;54.370;10.132;2022-10-16T03:57:41;10.60;;;3.70;;
13252;SDS011;6693;54.370;10.132;2022-10-16T03:58:44;8.80;;;3.22;;
13252;SDS011;6693;54.370;10.132;2022-10-16T03:59:45;8.85;;;3.13;;
13252;SDS011;6693;54.370;10.132;2022-10-16T04:00:48;8.77;;;3.30;;
13252;SDS011;6693;54.370;10.132;2022-10-16T04:01:49;8.70;;;3.80;;
13252;SDS011;6693;54.370;10.132;2022-10-16T04:02:55;10.32;;;3.15;;
13252;SDS011;6693;54.370;10.132;2022-10-16T04:03:55;8.50;;;3.30;;
13252;SDS011;6693;54.370;10.132;2022-10-16T04:04:58;7.30;;;2.97;;
13252;SDS011;6693;54.370;10.132;2022-10-16T04:05:59;10.07;;;3.20;;
13252;SDS011;6693;54.370;10.132;2022-10-16T04:07:02;7.22;;;2.25;;
13252;SDS011;6693;54.370;10.132;2022-10-16T04:08:03;9.27;;;2.85;;
13252;SDS011;6693;54.370;10.132;2022-10-16T04:09:06;7.03;;;2.70;;
13252;SDS011;6693;54.370;10.132;2022-10-16T04:10:07;9.35;;;2.95;;
13252;SDS011;6693;54.370;10.132;2022-10-16T04:11:11;8.70;;;3.00;;
13252;SDS011;6693;54.370;10.132;2022-10-16T04:12:11;8.93;;;3.15;;
13252;SDS011;6693;54.370;10.132;2022-10-16T04:13:15;8.35;;;3.13;;
13252;SDS011;6693;54.370;10.132;2022-10-16T04:14:15;7.25;;;2.95;;
13252;SDS011;6693;54.370;10.132;2022-10-16T04:15:18;8.57;;;2.70;;
13252;SDS011;6693;54.370;10.132;2022-10-16T04:16:19;8.45;;;2.65;;
13252;SDS011;6693;54.370;10.132;2022-10-16T04:17:22;9.68;;;3.10;;
13252;SDS011;6693;54.370;10.132;2022-10-16T04:18:25;8.88;;;2.70;;
13252;SDS011;6693;54.370;10.132;2022-10-16T04:19:29;6.47;;;2.38;;
13252;SDS011;6693;54.370;10.132;2022-10-16T04:20:30;7.63;;;2.80;;
13252;SDS011;6693;54.370;10.132;2022-10-16T04:21:33;7.78;;;2.85;;
13252;SDS011;6693;54.370;10.132;2022-10-16T04:22:33;8.75;;;2.70;;
13252;SDS011;6693;54.370;10.132;2022-10-16T04:23:37;6.93;;;1.70;;
13252;SDS011;6693;54.370;10.132;2022-10-16T04:24:37;6.65;;;2.17;;
13252;SDS011;6693;54.370;10.132;2022-10-16T04:25:40;8.10;;;2.83;;
13252;SDS011;6693;54.370;10.132;2022-10-16T04:26:41;7.18;;;2.13;;
13252;SDS011;6693;54.370;10.132;2022-10-16T04:27:44;8.68;;;2.53;;
13252;SDS011;6693;54.370;10.132;2022-10-16T04:28:45;8.27;;;2.45;;
13252;SDS011;6693;54.370;10.132;2022-10-16T04:29:48;7.85;;;2.22;;
13252;SDS011;6693;54.370;10.132;2022-10-16T04:30:49;7.15;;;2.15;;
13252;SDS011;6693;54.370;10.132;2022-10-16T04:31:52;5.75;;;2.03;;
13252;SDS011;6693;54.370;10.132;2022-10-16T04:32:52;5.70;;;2.03;;
13252;SDS011;6693;54.370;10.132;2022-10-16T04:33:58;8.38;;;2.00;;
13252;SDS011;6693;54.370;10.132;2022-10-16T04:34:59;6.30;;;2.00;;
13252;SDS011;6693;54.370;10.132;2022-10-16T04:36:03;5.72;;;2.22;;
13252;SDS011;6693;54.370;10.132;2022-10-16T04:37:04;5.03;;;1.52;;
13252;SDS011;6693;54.370;10.132;2022-10-16T04:38:07;8.80;;;4.55;;
13252;SDS011;6693;54.370;10.132;2022-10-16T04:39:08;19.70;;;15.38;;
13252;SDS011;6693;54.370;10.132;2022-10-16T04:40:11;7.05;;;3.25;;
13252;SDS011;6693;54.370;10.132;2022-10-16T04:41:12;6.90;;;2.13;;
13252;SDS011;6693;54.370;10.132;2022-10-16T04:42:15;5.88;;;1.50;;
13252;SDS011;6693;54.370;10.132;2022-10-16T04:43:16;8.20;;;1.70;;
13252;SDS011;6693;54.370;10.132;2022-10-16T04:44:19;6.80;;;1.85;;
13252;SDS011;6693;54.370;10.132;2022-10-16T04:45:20;6.90;;;2.08;;
13252;SDS011;6693;54.370;10.132;2022-10-16T04:46:23;6.18;;;2.00;;
13252;SDS011;6693;54.370;10.132;2022-10-16T04:47:24;7.18;;;1.90;;
13252;SDS011;6693;54.370;10.132;2022-10-16T04:48:27;7.72;;;1.75;;
13252;SDS011;6693;54.370;10.132;2022-10-16T04:49:30;7.75;;;1.73;;
13252;SDS011;6693;54.370;10.132;2022-10-16T04:50:33;6.22;;;1.73;;
13252;SDS011;6693;54.370;10.132;2022-10-16T04:51:36;5.80;;;1.70;;
13252;SDS011;6693;54.370;10.132;2022-10-16T04:52:37;5.65;;;1.70;;
13252;SDS011;6693;54.370;10.132;2022-10-16T04:53:40;6.38;;;1.85;;
13252;SDS011;6693;54.370;10.132;2022-10-16T04:54:41;7.53;;;1.75;;
13252;SDS011;6693;54.370;10.132;2022-10-16T04:55:45;7.35;;;2.13;;
13252;SDS011;6693;54.370;10.132;2022-10-16T04:56:45;6.13;;;1.65;;
13252;SDS011;6693;54.370;10.132;2022-10-16T04:57:50;5.10;;;1.38;;
13252;SDS011;6693;54.370;10.132;2022-10-16T04:58:51;6.63;;;1.23;;
13252;SDS011;6693;54.370;10.132;2022-10-16T04:59:54;6.07;;;1.50;;
13252;SDS011;6693;54.370;10.132;2022-10-16T05:00:55;8.13;;;1.80;;
13252;SDS011;6693;54.370;10.132;2022-10-16T05:01:58;5.22;;;1.42;;
13252;SDS011;6693;54.370;10.132;2022-10-16T05:02:59;6.10;;;1.55;;
13252;SDS011;6693;54.370;10.132;2022-10-16T05:04:06;4.90;;;1.58;;
13252;SDS011;6693;54.370;10.132;2022-10-16T05:05:09;5.88;;;1.60;;
13252;SDS011;6693;54.370;10.132;2022-10-16T05:06:12;6.30;;;1.60;;
13252;SDS011;6693;54.370;10.132;2022-10-16T05:07:13;7.18;;;1.70;;
13252;SDS011;6693;54.370;10.132;2022-10-16T05:08:16;7.82;;;1.52;;
13252;SDS011;6693;54.370;10.132;2022-10-16T05:09:17;5.50;;;1.65;;
13252;SDS011;6693;54.370;10.132;2022-10-16T05:10:20;5.78;;;1.77;;
13252;SDS011;6693;54.370;10.132;2022-10-16T05:11:21;6.88;;;1.45;;
13252;SDS011;6693;54.370;10.132;2022-10-16T05:12:24;6.22;;;1.50;;
13252;SDS011;6693;54.370;10.132;2022-10-16T05:13:25;5.57;;;1.90;;
13252;SDS011;6693;54.370;10.132;2022-10-16T05:14:28;6.65;;;1.80;;
13252;SDS011;6693;54.370;10.132;2022-10-16T05:15:28;7.60;;;1.33;;
13252;SDS011;6693;54.370;10.132;2022-10-16T05:16:32;6.22;;;1.80;;
13252;SDS011;6693;54.370;10.132;2022-10-16T05:17:32;7.32;;;1.63;;
13252;SDS011;6693;54.370;10.132;2022-10-16T05:18:35;6.75;;;1.63;;
13252;SDS011;6693;54.370;10.132;2022-10-16T05:19:36;4.32;;;1.42;;
13252;SDS011;6693;54.370;10.132;2022-10-16T05:20:42;6.45;;;1.80;;
13252;SDS011;6693;54.370;10.132;2022-10-16T05:21:42;7.13;;;1.52;;
13252;SDS011;6693;54.370;10.132;2022-10-16T05:22:46;5.72;;;1.75;;
13252;SDS011;6693;54.370;10.132;2022-10-16T05:23:46;5.80;;;1.75;;
13252;SDS011;6693;54.370;10.132;2022-10-16T05:24:49;7.07;;;1.75;;
13252;SDS011;6693;54.370;10.132;2022-10-16T05:25:53;5.05;;;1.58;;
13252;SDS011;6693;54.370;10.132;2022-10-16T05:26:58;6.03;;;1.48;;
13252;SDS011;6693;54.370;10.132;2022-10-16T05:27:58;7.22;;;1.80;;
13252;SDS011;6693;54.370;10.132;2022-10-16T05:29:02;6.03;;;1.70;;
13252;SDS011;6693;54.370;10.132;2022-10-16T05:30:03;5.85;;;1.73;;
13252;SDS011;6693;54.370;10.132;2022-10-16T05:31:08;6.80;;;1.95;;
13252;SDS011;6693;54.370;10.132;2022-10-16T05:32:09;6.30;;;1.48;;
13252;SDS011;6693;54.370;10.132;2022-10-16T05:33:12;5.25;;;1.60;;
13252;SDS011;6693;54.370;10.132;2022-10-16T05:34:13;5.15;;;1.27;;
13252;SDS011;6693;54.370;10.132;2022-10-16T05:35:17;5.45;;;1.70;;
13252;SDS011;6693;54.370;10.132;2022-10-16T05:36:20;5.93;;;1.48;;
13252;SDS011;6693;54.370;10.132;2022-10-16T05:37:24;5.35;;;1.73;;
13252;SDS011;6693;54.370;10.132;2022-10-16T05:38:24;4.53;;;1.15;;
13252;SDS011;6693;54.370;10.132;2022-10-16T05:39:27;6.15;;;1.63;;
13252;SDS011;6693;54.370;10.132;2022-10-16T05:40:28;9.35;;;1.70;;
13252;SDS011;6693;54.370;10.132;2022-10-16T05:41:31;6.85;;;1.50;;
13252;SDS011;6693;54.370;10.132;2022-10-16T05:42:32;6.13;;;1.73;;
13252;SDS011;6693;54.370;10.132;2022-10-16T05:43:35;7.15;;;2.03;;
13252;SDS011;6693;54.370;10.132;2022-10-16T05:44:36;5.85;;;1.70;;
13252;SDS011;6693;54.370;10.132;2022-10-16T05:45:39;6.32;;;1.70;;
13252;SDS011;6693;54.370;10.132;2022-10-16T05:46:39;8.15;;;2.10;;
13252;SDS011;6693;54.370;10.132;2022-10-16T05:47:42;4.65;;;1.77;;
13252;SDS011;6693;54.370;10.132;2022-10-16T05:48:43;5.38;;;1.58;;
13252;SDS011;6693;54.370;10.132;2022-10-16T05:49:46;5.32;;;1.50;;
13252;SDS011;6693;54.370;10.132;2022-10-16T05:50:47;6.07;;;1.45;;
13252;SDS011;6693;54.370;10.132;2022-10-16T05:51:53;9.43;;;1.90;;
13252;SDS011;6693;54.370;10.132;2022-10-16T05:52:53;6.88;;;1.90;;
13252;SDS011;6693;54.370;10.132;2022-10-16T05:53:56;5.78;;;1.45;;
13252;SDS011;6693;54.370;10.132;2022-10-16T05:54:57;5.95;;;1.52;;
13252;SDS011;6693;54.370;10.132;2022-10-16T05:56:01;5.38;;;1.70;;
13252;SDS011;6693;54.370;10.132;2022-10-16T05:57:02;8.52;;;1.70;;
13252;SDS011;6693;54.370;10.132;2022-10-16T05:58:05;6.90;;;1.95;;
13252;SDS011;6693;54.370;10.132;2022-10-16T05:59:06;6.20;;;1.48;;
13252;SDS011;6693;54.370;10.132;2022-10-16T06:00:10;6.05;;;1.60;;
13252;SDS011;6693;54.370;10.132;2022-10-16T06:01:11;8.20;;;1.90;;
13252;SDS011;6693;54.370;10.132;2022-10-16T06:02:15;5.50;;;1.35;;
13252;SDS011;6693;54.370;10.132;2022-10-16T06:03:16;7.60;;;1.67;;
13252;SDS011;6693;54.370;10.132;2022-10-16T06:04:19;6.50;;;1.42;;
13252;SDS011;6693;54.370;10.132;2022-10-16T06:05:22;6.65;;;1.73;;
13252;SDS011;6693;54.370;10.132;2022-10-16T06:06:24;6.80;;;1.27;;
13252;SDS011;6693;54.370;10.132;2022-10-16T06:07:33;5.45;;;1.70;;
13252;SDS011;6693;54.370;10.132;2022-10-16T06:08:37;4.97;;;1.48;;
13252;SDS011;6693;54.370;10.132;2022-10-16T06:09:37;6.43;;;1.20;;
13252;SDS011;6693;54.370;10.132;2022-10-16T06:10:41;5.95;;;1.58;;
13252;SDS011;6693;54.370;10.132;2022-10-16T06:11:41;6.15;;;1.50;;
13252;SDS011;6693;54.370;10.132;2022-10-16T06:12:44;6.45;;;1.48;;
13252;SDS011;6693;54.370;10.132;2022-10-16T06:13:48;7.18;;;1.35;;
13252;SDS011;6693;54.370;10.132;2022-10-16T06:14:52;7.75;;;1.70;;
13252;SDS011;6693;54.370;10.132;2022-10-16T06:15:52;6.60;;;1.55;;
13252;SDS011;6693;54.370;10.132;2022-10-16T06:16:56;5.88;;;1.38;;
13252;SDS011;6693;54.370;10.132;2022-10-16T06:17:56;4.82;;;1.42;;
13252;SDS011;6693;54.370;10.132;2022-10-16T06:18:59;4.30;;;1.33;;
13252;SDS011;6693;54.370;10.132;2022-10-16T06:20:06;6.35;;;1.88;;
13252;SDS011;6693;54.370;10.132;2022-10-16T06:21:07;6.90;;;1.40;;